createdAt,value
2019-02-21T00:01:46.053Z,1999.90
2019-02-21T00:06:49.325Z,1999.90
2019-02-21T00:11:52.597Z,1999.90
2019-02-21T00:16:55.874Z,1999.90
2019-02-21T00:21:59.608Z,1999.90
2019-02-21T00:27:03.053Z,1999.90
2019-02-21T00:32:06.334Z,1999.90
2019-02-21T00:37:09.606Z,1999.90
2019-02-21T00:42:12.874Z,1999.90
2019-02-21T00:47:16.141Z,1999.90
2019-02-21T00:52:19.675Z,1999.90
2019-02-21T00:57:22.942Z,1999.90
2019-02-21T01:02:26.213Z,1999.90
2019-02-21T01:07:29.569Z,1999.90
2019-02-21T01:12:32.836Z,1999.90
2019-02-21T01:17:36.183Z,1999.90
2019-02-21T01:22:39.454Z,1999.90
2019-02-21T01:27:43.135Z,1999.90
2019-02-21T01:32:46.409Z,1999.90
2019-02-21T01:37:49.678Z,1999.90
2019-02-21T01:42:52.953Z,1999.90
2019-02-21T01:47:56.296Z,1999.90
2019-02-21T01:52:59.981Z,1999.90
2019-02-21T01:58:03.273Z,1999.90
2019-02-21T02:03:06.798Z,1999.90
2019-02-21T02:08:10.071Z,1999.90
2019-02-21T02:13:24.139Z,1999.90
2019-02-21T02:18:18.332Z,1999.90
2019-02-21T02:23:21.610Z,1999.90
2019-02-21T02:28:24.877Z,1999.90
2019-02-21T02:33:28.562Z,1999.90
2019-02-21T02:38:31.828Z,1999.90
2019-02-21T02:43:35.103Z,1999.90
2019-02-21T02:48:38.390Z,1999.90
2019-02-21T02:53:41.681Z,1999.90
2019-02-21T02:58:45.698Z,1999.90
2019-02-21T03:03:49.435Z,1999.90
2019-02-21T03:08:52.722Z,1999.90
2019-02-21T03:13:56.005Z,1999.90
2019-02-21T03:18:59.299Z,1999.90
2019-02-21T03:24:03.037Z,1999.90
2019-02-21T03:29:06.338Z,1999.90
2019-02-21T03:34:10.026Z,1999.90
2019-02-21T03:39:13.329Z,1999.90
2019-02-21T03:44:16.787Z,1999.90
2019-02-21T03:49:20.097Z,1999.90
2019-02-21T03:54:23.417Z,1999.90
2019-02-21T03:59:26.979Z,1999.90
2019-02-21T04:04:30.669Z,1999.90
2019-02-21T04:09:34.123Z,1999.90
2019-02-21T04:14:37.493Z,1999.90
2019-02-21T04:19:40.807Z,1999.90
2019-02-21T04:24:44.289Z,1999.90
2019-02-21T04:29:47.734Z,1999.90
2019-02-21T04:34:51.449Z,1999.90
2019-02-21T04:39:54.861Z,1999.90
2019-02-21T04:44:58.182Z,1999.90
2019-02-21T04:50:01.755Z,1999.90
2019-02-21T04:55:05.101Z,1999.90
2019-02-21T05:00:08.862Z,1999.90
2019-02-21T05:05:12.426Z,1999.90
2019-02-21T05:10:16.142Z,1927.67
2019-02-21T05:15:19.448Z,1790.33
2019-02-21T05:20:22.742Z,1999.90
2019-02-21T05:25:26.301Z,1919.77
2019-02-21T05:30:29.617Z,1885.40
2019-02-21T05:35:48.458Z,1996.50
2019-02-21T05:41:23.097Z,1999.90
2019-02-21T05:46:35.117Z,1677.93
2019-02-21T05:51:42.777Z,1548.27
2019-02-21T05:56:54.981Z,1724.43
2019-02-21T06:02:09.610Z,1580.10
2019-02-21T06:07:20.178Z,1339.50
2019-02-21T06:12:33.680Z,1828.00
2019-02-21T06:17:42.429Z,1638.37
2019-02-21T06:23:11.125Z,1324.27
2019-02-21T06:28:38.468Z,1248.57
2019-02-21T06:33:44.981Z,1416.10
2019-02-21T06:38:48.403Z,1456.70
2019-02-21T06:43:52.769Z,1424.83
2019-02-21T06:48:58.356Z,1420.13
2019-02-21T06:54:04.129Z,1382.50
2019-02-21T06:59:29.769Z,1434.47
2019-02-21T07:04:33.481Z,1227.50
2019-02-21T07:09:36.774Z,1317.87
2019-02-21T07:14:40.474Z,1788.53
2019-02-21T07:19:43.748Z,1855.57
2019-02-21T07:24:49.873Z,1098.97
2019-02-21T07:29:53.558Z,1842.27
2019-02-21T07:34:57.256Z,1532.20
2019-02-21T07:40:00.540Z,1216.70
2019-02-21T07:45:04.028Z,1232.83
2019-02-21T07:50:07.526Z,1703.93
2019-02-21T07:55:10.819Z,1136.87
2019-02-21T08:00:14.411Z,1304.07
2019-02-21T08:05:17.725Z,1999.90
2019-02-21T08:10:32.784Z,1377.20
2019-02-21T08:15:27.844Z,1650.20
2019-02-21T08:20:35.556Z,1508.80
2019-02-21T08:25:36.400Z,1170.63
2019-02-21T08:30:39.773Z,1201.30
2019-02-21T08:35:43.168Z,1241.43
2019-02-21T08:40:46.892Z,1427.23
2019-02-21T08:45:50.186Z,1649.27
2019-02-21T08:50:53.491Z,1364.40
2019-02-21T08:55:56.837Z,1552.03
2019-02-21T09:01:00.157Z,1653.27
2019-02-21T09:06:03.581Z,1590.50
2019-02-21T09:11:07.299Z,1775.73
2019-02-21T09:16:10.978Z,1347.13
2019-02-21T09:21:14.289Z,1729.97
2019-02-21T09:26:17.621Z,1261.37
2019-02-21T09:31:20.943Z,1187.00
2019-02-21T09:36:24.256Z,1493.57
2019-02-21T09:41:28.660Z,1268.37
2019-02-21T09:46:32.182Z,1999.90
2019-02-21T09:51:36.723Z,1204.17
2019-02-21T09:56:40.066Z,1999.90
2019-02-21T10:01:43.382Z,1684.53
2019-02-21T10:06:46.769Z,1364.40
2019-02-21T10:11:50.078Z,1332.63
2019-02-21T10:16:53.385Z,1999.90
2019-02-21T10:21:57.350Z,1830.00
2019-02-21T10:27:01.082Z,1999.90
2019-02-21T10:32:04.406Z,1392.63
2019-02-21T10:37:07.766Z,1999.90
2019-02-21T10:42:11.676Z,1870.63
2019-02-21T10:47:15.106Z,1999.90
2019-02-21T10:52:18.525Z,1399.27
2019-02-21T10:57:22.286Z,1999.90
2019-02-21T11:02:25.574Z,1999.90
2019-02-21T11:07:28.886Z,1999.90
2019-02-21T11:12:33.002Z,1999.90
2019-02-21T11:17:36.848Z,1883.60
2019-02-21T11:22:40.386Z,1999.90
2019-02-21T11:27:43.751Z,1732.63
2019-02-21T11:32:47.219Z,1904.33
2019-02-21T11:37:51.185Z,1999.90
2019-02-21T11:42:54.495Z,1562.30
2019-02-21T11:47:57.780Z,1544.13
2019-02-21T11:53:01.144Z,1564.57
2019-02-21T11:58:05.183Z,1893.93
2019-02-21T12:03:08.574Z,1622.73
2019-02-21T12:08:11.889Z,1999.90
2019-02-21T12:13:15.229Z,1631.17
2019-02-21T12:18:18.936Z,1502.23
2019-02-21T12:23:22.238Z,1899.20
2019-02-21T12:28:25.552Z,1999.90
2019-02-21T12:33:29.201Z,1999.90
2019-02-21T12:38:32.514Z,1999.90
2019-02-21T12:43:35.878Z,1426.33
2019-02-21T12:48:39.397Z,1999.90
2019-02-21T12:53:43.209Z,1999.90
2019-02-21T12:58:46.529Z,1656.03
2019-02-21T13:03:50.253Z,1999.90
2019-02-21T13:08:53.566Z,1999.90
2019-02-21T13:13:57.146Z,1999.90
2019-02-21T13:19:00.450Z,1999.90
2019-02-21T13:24:03.765Z,1849.80
2019-02-21T13:29:07.525Z,1999.90
2019-02-21T13:34:11.238Z,1999.90
2019-02-21T13:39:15.047Z,1999.90
2019-02-21T13:44:18.357Z,1999.90
2019-02-21T13:49:21.661Z,1993.13
2019-02-21T13:54:25.074Z,1999.90
2019-02-21T13:59:28.400Z,1357.20
2019-02-21T14:04:32.094Z,1998.13
2019-02-21T14:09:37.885Z,1599.43
2019-02-21T14:14:42.506Z,1342.23
2019-02-21T14:19:46.062Z,1358.07
2019-02-21T14:24:49.778Z,1205.60
2019-02-21T14:29:53.084Z,1999.90
2019-02-21T14:34:56.786Z,1234.50
2019-02-21T14:40:00.511Z,1716.17
2019-02-21T14:45:04.141Z,1409.10
2019-02-21T14:50:07.873Z,1358.00
2019-02-21T14:55:12.649Z,1466.43
2019-02-21T15:00:17.198Z,1354.73
2019-02-21T15:05:20.507Z,1148.20
2019-02-21T15:10:23.797Z,1124.00
2019-02-21T15:15:27.348Z,1272.07
2019-02-21T15:20:36.870Z,1170.60
2019-02-21T15:25:36.114Z,1227.23
2019-02-21T15:30:39.850Z,1243.17
2019-02-21T15:35:43.587Z,1126.93
2019-02-21T15:40:47.140Z,1259.50
2019-02-21T15:45:51.273Z,1238.43
2019-02-21T15:50:55.086Z,1164.27
2019-02-21T15:55:58.384Z,1339.23
2019-02-21T16:01:01.658Z,1305.10
2019-02-21T16:06:04.975Z,1348.00
2019-02-21T16:11:08.274Z,1088.37
2019-02-21T16:16:11.589Z,1144.73
2019-02-21T16:21:15.187Z,1110.87
2019-02-21T16:26:18.544Z,1314.57
2019-02-21T16:31:21.832Z,1113.70
2019-02-21T16:36:25.362Z,1267.60
2019-02-21T16:41:36.092Z,1176.73
2019-02-21T16:46:33.734Z,1151.60
2019-02-21T16:51:37.051Z,1246.37
2019-02-21T16:56:40.437Z,1345.30
2019-02-21T17:01:44.013Z,1083.77
2019-02-21T17:06:47.310Z,1325.27
2019-02-21T17:11:50.622Z,1171.27
2019-02-21T17:16:53.965Z,1060.43
2019-02-21T17:21:57.339Z,1166.40
2019-02-21T17:27:00.627Z,1174.83
2019-02-21T17:32:04.003Z,1146.77
2019-02-21T17:37:07.581Z,1254.53
2019-02-21T17:42:11.142Z,1164.03
2019-02-21T17:47:14.441Z,1107.43
2019-02-21T17:52:18.719Z,1576.97
2019-02-21T17:57:30.262Z,1241.10
2019-02-21T18:02:34.558Z,1245.60
2019-02-21T18:07:38.278Z,1999.90
2019-02-21T18:12:42.890Z,1589.67
2019-02-21T18:17:46.236Z,1999.90
2019-02-21T18:22:49.569Z,1110.67
2019-02-21T18:27:52.885Z,1611.73
2019-02-21T18:32:56.178Z,1999.90
2019-02-21T18:37:59.807Z,1999.90
2019-02-21T18:43:03.096Z,1525.97
2019-02-21T18:48:13.168Z,1999.90
2019-02-21T18:53:26.801Z,1999.90
2019-02-21T18:58:38.601Z,1999.90
2019-02-21T19:03:42.038Z,1999.90
2019-02-21T19:08:46.319Z,1698.77
2019-02-21T19:13:49.710Z,1708.97
2019-02-21T19:18:53.008Z,1999.90
2019-02-21T19:23:56.396Z,1999.90
2019-02-21T19:28:59.725Z,1999.90
2019-02-21T19:34:03.949Z,1999.90
2019-02-21T19:39:08.075Z,1999.90
2019-02-21T19:44:11.686Z,1999.90
2019-02-21T19:49:15.910Z,1999.90
2019-02-21T19:54:19.499Z,1999.90
2019-02-21T19:59:23.496Z,1999.90
2019-02-21T20:04:26.798Z,1999.90
2019-02-21T20:09:30.346Z,1999.90
2019-02-21T20:14:34.240Z,1999.90
2019-02-21T20:19:38.203Z,1916.70
2019-02-21T20:24:41.850Z,1999.90
2019-02-21T20:29:45.206Z,1999.90
2019-02-21T20:34:48.807Z,1999.90
2019-02-21T20:39:55.046Z,1999.90
2019-02-21T20:44:58.277Z,1999.90
2019-02-21T20:50:01.833Z,1999.90
2019-02-21T20:55:05.249Z,1999.90
2019-02-21T21:00:09.715Z,1999.90
2019-02-21T21:05:14.023Z,1999.90
2019-02-21T21:10:18.279Z,1508.40
2019-02-21T21:15:21.711Z,1999.90
2019-02-21T21:20:26.120Z,1999.90
2019-02-21T21:25:31.842Z,1999.90
2019-02-21T21:30:34.723Z,1999.90
2019-02-21T21:35:38.010Z,1999.90
2019-02-21T21:40:41.298Z,1999.90
2019-02-21T21:45:44.878Z,1999.90
2019-02-21T21:50:48.161Z,1999.90
2019-02-21T21:55:51.598Z,1999.90
2019-02-21T22:00:55.195Z,1999.90
2019-02-21T22:05:58.725Z,1999.90
2019-02-21T22:11:02.515Z,1999.90
2019-02-21T22:16:05.811Z,1999.90
2019-02-21T22:21:09.101Z,1999.90
2019-02-21T22:26:12.386Z,1999.90
2019-02-21T22:31:15.674Z,1999.90
2019-02-21T22:36:19.620Z,1999.90
2019-02-21T22:41:23.041Z,1999.90
2019-02-21T22:46:26.658Z,1999.90
2019-02-21T22:51:29.966Z,1999.90
2019-02-21T22:56:33.519Z,1999.90
2019-02-21T23:01:38.205Z,1999.90
2019-02-21T23:06:44.213Z,1999.90
2019-02-21T23:11:47.596Z,1999.90
2019-02-21T23:16:51.148Z,1999.90
2019-02-21T23:21:54.750Z,1999.90
2019-02-21T23:26:58.037Z,1999.90
2019-02-21T23:32:03.299Z,1999.90
2019-02-21T23:37:06.460Z,1999.90
2019-02-21T23:42:10.316Z,1999.90
2019-02-21T23:47:13.690Z,1999.90
2019-02-21T23:52:17.021Z,1999.90
2019-02-21T23:57:20.390Z,1999.90
